createdAt,value
2018-06-12T00:01:26.910Z,60.24
2018-06-12T00:03:55.152Z,61.00
2018-06-12T00:06:23.402Z,60.67
2018-06-12T00:08:51.648Z,61.59
2018-06-12T00:11:19.942Z,61.06
2018-06-12T00:13:48.524Z,61.59
2018-06-12T00:16:16.771Z,61.86
2018-06-12T00:18:45.016Z,62.93
2018-06-12T00:21:13.277Z,60.94
2018-06-12T00:23:41.623Z,61.66
2018-06-12T00:26:10.022Z,62.17
2018-06-12T00:28:38.247Z,62.26
2018-06-12T00:31:06.459Z,61.63
2018-06-12T00:33:34.681Z,62.09
2018-06-12T00:36:02.880Z,62.47
2018-06-12T00:38:31.104Z,62.98
2018-06-12T00:40:59.349Z,63.60
2018-06-12T00:43:27.585Z,62.34
2018-06-12T00:45:55.830Z,60.70
2018-06-12T00:48:24.121Z,60.87
2018-06-12T00:50:52.344Z,61.30
2018-06-12T00:53:20.891Z,60.95
2018-06-12T00:55:49.220Z,59.39
2018-06-12T00:58:17.449Z,60.26
2018-06-12T01:00:45.800Z,59.56
2018-06-12T01:03:14.036Z,58.10
2018-06-12T01:05:42.364Z,58.79
2018-06-12T01:08:10.620Z,57.45
2018-06-12T01:10:38.876Z,57.98
2018-06-12T01:13:07.081Z,57.16
2018-06-12T01:15:35.315Z,57.28
2018-06-12T01:18:03.554Z,57.66
2018-06-12T01:20:31.887Z,58.01
2018-06-12T01:23:00.161Z,58.06
2018-06-12T01:25:28.357Z,57.33
2018-06-12T01:27:56.624Z,57.62
2018-06-12T01:30:24.836Z,58.48
2018-06-12T01:32:53.046Z,57.08
2018-06-12T01:35:22.086Z,57.33
2018-06-12T01:37:50.324Z,58.45
2018-06-12T01:40:18.588Z,57.98
2018-06-12T01:42:46.846Z,58.52
2018-06-12T01:45:15.377Z,58.73
2018-06-12T01:47:43.580Z,58.35
2018-06-12T01:50:11.861Z,58.25
2018-06-12T01:52:40.060Z,58.62
2018-06-12T01:55:08.338Z,58.23
2018-06-12T01:57:36.564Z,58.83
2018-06-12T02:00:04.819Z,58.60
2018-06-12T02:02:33.059Z,58.19
2018-06-12T02:05:01.381Z,58.81
2018-06-12T02:07:29.634Z,59.21
2018-06-12T02:09:57.930Z,58.29
2018-06-12T02:12:26.172Z,58.32
2018-06-12T02:14:54.431Z,58.60
2018-06-12T02:17:22.718Z,57.66
2018-06-12T02:19:50.925Z,57.58
2018-06-12T02:22:19.207Z,57.59
2018-06-12T02:24:47.408Z,58.44
2018-06-12T02:27:15.650Z,58.14
2018-06-12T02:29:43.865Z,58.64
2018-06-12T02:32:12.091Z,58.06
2018-06-12T02:34:40.303Z,58.41
2018-06-12T02:37:08.549Z,57.98
2018-06-12T02:39:36.840Z,57.28
2018-06-12T02:42:05.105Z,57.01
2018-06-12T02:44:33.385Z,57.90
2018-06-12T02:47:01.621Z,57.86
2018-06-12T02:49:29.893Z,57.59
2018-06-12T02:51:58.153Z,58.42
2018-06-12T02:54:26.367Z,57.60
2018-06-12T02:56:54.646Z,59.10
2018-06-12T02:59:22.838Z,58.46
2018-06-12T03:01:51.049Z,59.06
2018-06-12T03:04:19.265Z,58.58
2018-06-12T03:06:47.570Z,59.54
2018-06-12T03:09:15.772Z,59.72
2018-06-12T03:11:43.999Z,58.94
2018-06-12T03:14:12.241Z,59.51
2018-06-12T03:16:40.535Z,58.95
2018-06-12T03:19:08.761Z,58.86
2018-06-12T03:21:37.041Z,59.17
2018-06-12T03:24:05.271Z,59.22
2018-06-12T03:26:33.557Z,60.00
2018-06-12T03:29:01.747Z,59.43
2018-06-12T03:31:29.975Z,59.43
2018-06-12T03:33:58.235Z,60.26
2018-06-12T03:36:26.503Z,60.25
2018-06-12T03:38:54.731Z,60.48
2018-06-12T03:41:22.994Z,60.22
2018-06-12T03:43:51.264Z,60.11
2018-06-12T03:46:19.470Z,60.45
2018-06-12T03:48:47.776Z,59.50
2018-06-12T03:51:16.007Z,60.10
2018-06-12T03:53:44.251Z,60.09
2018-06-12T03:56:12.452Z,60.35
2018-06-12T03:58:40.665Z,60.86
2018-06-12T04:01:09.642Z,60.71
2018-06-12T04:03:37.978Z,61.10
2018-06-12T04:06:06.255Z,60.84
2018-06-12T04:08:34.557Z,60.11
2018-06-12T04:11:03.416Z,60.26
2018-06-12T04:13:31.663Z,60.34
2018-06-12T04:15:59.888Z,60.36
2018-06-12T04:18:28.125Z,60.27
2018-06-12T04:20:56.363Z,60.38
2018-06-12T04:23:24.569Z,60.20
2018-06-12T04:25:52.821Z,59.94
2018-06-12T04:28:21.038Z,59.59
2018-06-12T04:30:49.292Z,59.53
2018-06-12T04:33:17.536Z,58.64
2018-06-12T04:35:45.816Z,58.95
2018-06-12T04:38:14.045Z,58.84
2018-06-12T04:40:42.296Z,58.90
2018-06-12T04:43:10.547Z,57.79
2018-06-12T04:45:38.789Z,57.56
2018-06-12T04:48:07.030Z,58.01
2018-06-12T04:50:35.288Z,57.94
2018-06-12T04:53:03.536Z,58.25
2018-06-12T04:55:31.772Z,59.65
2018-06-12T04:58:00.032Z,58.60
2018-06-12T05:00:28.251Z,59.17
2018-06-12T05:02:56.532Z,58.99
2018-06-12T05:05:24.767Z,58.73
2018-06-12T05:07:53.017Z,59.54
2018-06-12T05:10:21.265Z,59.35
2018-06-12T05:12:49.580Z,59.56
2018-06-12T05:15:17.807Z,59.98
2018-06-12T05:17:46.015Z,60.25
2018-06-12T05:20:14.264Z,59.92
2018-06-12T05:22:42.523Z,60.48
2018-06-12T05:25:10.919Z,60.12
2018-06-12T05:27:40.279Z,61.17
2018-06-12T05:30:08.576Z,59.84
2018-06-12T05:32:36.832Z,60.69
2018-06-12T05:35:06.122Z,60.66
2018-06-12T05:37:34.461Z,61.23
2018-06-12T05:40:02.716Z,60.69
2018-06-12T05:42:30.952Z,59.90
2018-06-12T05:44:59.246Z,59.98
2018-06-12T05:47:27.498Z,59.98
2018-06-12T05:49:55.775Z,60.54
2018-06-12T05:52:23.999Z,60.86
2018-06-12T05:54:52.280Z,60.29
2018-06-12T05:57:20.519Z,61.24
2018-06-12T05:59:48.733Z,60.30
2018-06-12T06:02:17.001Z,60.81
2018-06-12T06:04:45.318Z,60.12
2018-06-12T06:07:13.556Z,61.04
2018-06-12T06:09:41.821Z,60.14
2018-06-12T06:12:10.042Z,59.75
2018-06-12T06:14:38.279Z,60.32
2018-06-12T06:17:06.556Z,59.34
2018-06-12T06:19:34.824Z,59.87
2018-06-12T06:22:03.047Z,59.07
2018-06-12T06:24:31.363Z,58.87
2018-06-12T06:26:59.618Z,59.28
2018-06-12T06:29:28.153Z,60.33
2018-06-12T06:31:56.612Z,59.00
2018-06-12T06:34:24.908Z,59.86
2018-06-12T06:36:53.193Z,58.90
2018-06-12T06:39:21.467Z,59.77
2018-06-12T06:41:49.829Z,60.17
2018-06-12T06:44:18.117Z,61.00
2018-06-12T06:46:46.400Z,59.97
2018-06-12T06:49:14.597Z,59.81
2018-06-12T06:51:42.815Z,59.68
2018-06-12T06:54:11.018Z,59.76
2018-06-12T06:56:39.298Z,59.57
2018-06-12T06:59:07.542Z,59.64
2018-06-12T07:01:36.035Z,59.06
2018-06-12T07:04:04.280Z,59.13
2018-06-12T07:06:32.484Z,57.99
2018-06-12T07:09:00.781Z,58.76
2018-06-12T07:11:29.112Z,59.00
2018-06-12T07:13:57.397Z,57.67
2018-06-12T07:16:25.659Z,60.13
2018-06-12T07:18:53.920Z,58.63
2018-06-12T07:21:23.943Z,58.29
2018-06-12T07:23:52.232Z,59.32
2018-06-12T07:26:20.486Z,59.42
2018-06-12T07:28:48.730Z,59.31
2018-06-12T07:31:16.991Z,59.44
2018-06-12T07:33:45.343Z,59.46
2018-06-12T07:36:13.647Z,59.79
2018-06-12T07:38:41.915Z,59.87
2018-06-12T07:41:10.148Z,60.35
2018-06-12T07:43:38.422Z,61.06
2018-06-12T07:46:06.640Z,61.05
2018-06-12T07:48:34.876Z,61.00
2018-06-12T07:51:03.077Z,61.84
2018-06-12T07:53:31.423Z,61.36
2018-06-12T07:55:59.696Z,62.20
2018-06-12T07:58:27.970Z,61.43
2018-06-12T08:00:56.896Z,61.44
2018-06-12T08:03:25.166Z,60.57
2018-06-12T08:05:53.535Z,62.19
2018-06-12T08:08:21.737Z,62.31
2018-06-12T08:10:50.035Z,61.78
2018-06-12T08:13:18.310Z,61.25
2018-06-12T08:15:46.557Z,61.41
2018-06-12T08:18:14.856Z,62.19
2018-06-12T08:20:43.104Z,62.22
2018-06-12T08:23:11.348Z,61.00
2018-06-12T08:25:39.763Z,61.42
2018-06-12T08:28:08.135Z,62.03
2018-06-12T08:30:36.423Z,61.63
2018-06-12T08:33:04.672Z,61.11
2018-06-12T08:35:32.973Z,61.98
2018-06-12T08:38:01.245Z,61.28
2018-06-12T08:40:29.517Z,61.03
2018-06-12T08:42:57.844Z,61.04
2018-06-12T08:45:26.132Z,59.47
2018-06-12T08:47:54.393Z,59.02
2018-06-12T08:50:22.611Z,59.13
2018-06-12T08:52:50.925Z,58.71
2018-06-12T08:55:19.168Z,58.27
2018-06-12T08:57:47.412Z,58.07
2018-06-12T09:00:15.669Z,58.43
2018-06-12T09:02:43.986Z,57.56
2018-06-12T09:05:12.217Z,58.05
2018-06-12T09:07:40.490Z,58.73
2018-06-12T09:10:08.778Z,58.44
2018-06-12T09:12:37.073Z,58.48
2018-06-12T09:15:05.479Z,58.38
2018-06-12T09:17:33.703Z,58.41
2018-06-12T09:20:01.976Z,57.33
2018-06-12T09:22:30.265Z,58.67
2018-06-12T09:24:58.503Z,57.86
2018-06-12T09:27:26.816Z,57.84
2018-06-12T09:29:55.120Z,57.40
2018-06-12T09:32:23.409Z,59.57
2018-06-12T09:34:51.716Z,60.24
2018-06-12T09:37:19.987Z,59.89
2018-06-12T09:39:48.309Z,59.09
2018-06-12T09:42:16.581Z,59.39
2018-06-12T09:44:44.811Z,58.83
2018-06-12T09:47:13.039Z,58.78
2018-06-12T09:49:41.345Z,58.52
2018-06-12T09:52:09.600Z,58.65
2018-06-12T09:54:37.974Z,57.74
2018-06-12T09:57:06.246Z,58.88
2018-06-12T09:59:34.462Z,57.48
2018-06-12T10:02:02.714Z,57.75
2018-06-12T10:04:30.987Z,55.76
2018-06-12T10:06:59.247Z,55.78
2018-06-12T10:09:27.463Z,55.29
2018-06-12T10:11:55.708Z,55.57
2018-06-12T10:14:24.072Z,55.02
2018-06-12T10:16:52.309Z,54.70
2018-06-12T10:19:20.536Z,54.39
2018-06-12T10:21:48.775Z,52.79
2018-06-12T10:24:17.005Z,51.94
2018-06-12T10:26:45.237Z,52.59
2018-06-12T10:29:13.440Z,51.75
2018-06-12T10:31:41.649Z,51.78
2018-06-12T10:34:09.902Z,51.23
2018-06-12T10:36:38.119Z,51.90
2018-06-12T10:39:08.049Z,51.66
2018-06-12T10:41:36.340Z,51.22
2018-06-12T10:44:04.553Z,51.02
2018-06-12T10:46:32.827Z,52.21
2018-06-12T10:49:01.104Z,50.66
2018-06-12T10:51:29.293Z,51.27
2018-06-12T10:53:57.550Z,51.12
2018-06-12T10:56:25.761Z,51.00
2018-06-12T10:58:54.154Z,50.89
2018-06-12T11:01:22.414Z,51.48
2018-06-12T11:03:50.768Z,51.04
2018-06-12T11:06:18.988Z,51.66
2018-06-12T11:08:47.178Z,51.09
2018-06-12T11:11:15.390Z,50.96
2018-06-12T11:13:43.693Z,51.33
2018-06-12T11:16:11.951Z,51.70
2018-06-12T11:18:40.197Z,52.83
2018-06-12T11:21:08.530Z,53.17
2018-06-12T11:23:36.808Z,52.94
2018-06-12T11:26:05.137Z,53.36
2018-06-12T11:28:33.359Z,53.37
2018-06-12T11:31:01.575Z,52.92
2018-06-12T11:33:29.834Z,52.97
2018-06-12T11:35:58.100Z,51.62
2018-06-12T11:38:26.347Z,51.23
2018-06-12T11:40:54.591Z,51.79
2018-06-12T11:43:22.836Z,50.89
2018-06-12T11:45:51.077Z,51.34
2018-06-12T11:48:19.289Z,50.02
2018-06-12T11:50:47.536Z,50.77
2018-06-12T11:53:15.776Z,51.01
2018-06-12T11:55:44.960Z,51.13
2018-06-12T11:58:13.202Z,50.41
2018-06-12T12:00:41.428Z,50.68
2018-06-12T12:03:09.656Z,51.06
2018-06-12T12:05:37.942Z,50.21
2018-06-12T12:08:06.237Z,50.38
2018-06-12T12:10:34.488Z,50.39
2018-06-12T12:13:02.786Z,49.73
2018-06-12T12:15:31.045Z,49.53
2018-06-12T12:17:59.314Z,49.77
2018-06-12T12:20:27.552Z,50.19
2018-06-12T12:22:55.798Z,50.38
2018-06-12T12:25:23.988Z,50.61
2018-06-12T12:27:52.283Z,51.72
2018-06-12T12:30:20.518Z,51.84
2018-06-12T12:32:48.759Z,52.41
2018-06-12T12:35:17.001Z,53.67
2018-06-12T12:37:45.202Z,53.56
2018-06-12T12:40:13.447Z,52.98
2018-06-12T12:42:41.717Z,52.30
2018-06-12T12:45:09.985Z,52.06
2018-06-12T12:47:38.219Z,51.94
2018-06-12T12:50:06.528Z,52.01
2018-06-12T12:52:34.840Z,50.99
2018-06-12T12:55:03.256Z,50.53
2018-06-12T12:57:31.511Z,50.77
2018-06-12T12:59:59.813Z,50.99
2018-06-12T13:02:28.042Z,50.81
2018-06-12T13:04:56.292Z,50.07
2018-06-12T13:07:24.516Z,50.84
2018-06-12T13:09:52.773Z,51.17
2018-06-12T13:12:21.034Z,50.84
2018-06-12T13:14:49.321Z,51.40
2018-06-12T13:17:17.596Z,52.86
2018-06-12T13:19:45.799Z,52.05
2018-06-12T13:22:14.087Z,53.26
2018-06-12T13:24:42.299Z,52.20
2018-06-12T13:27:10.589Z,52.72
2018-06-12T13:29:38.837Z,52.19
2018-06-12T13:32:07.104Z,52.05
2018-06-12T13:34:35.323Z,52.24
2018-06-12T13:37:03.592Z,52.07
2018-06-12T13:39:31.836Z,51.46
2018-06-12T13:42:00.079Z,50.82
2018-06-12T13:44:28.455Z,50.23
2018-06-12T13:46:56.704Z,50.36
2018-06-12T13:49:25.043Z,50.43
2018-06-12T13:51:53.371Z,50.05
2018-06-12T13:54:21.684Z,51.00
2018-06-12T13:56:49.995Z,50.52
2018-06-12T13:59:18.316Z,50.91
2018-06-12T14:01:46.603Z,51.05
2018-06-12T14:04:14.840Z,51.18
2018-06-12T14:06:43.095Z,51.03
2018-06-12T14:09:11.322Z,51.81
2018-06-12T14:11:39.561Z,51.61
2018-06-12T14:14:07.788Z,51.79
2018-06-12T14:16:36.008Z,52.07
2018-06-12T14:19:04.225Z,51.36
2018-06-12T14:21:32.583Z,51.40
2018-06-12T14:24:00.813Z,50.82
2018-06-12T14:26:29.052Z,51.52
2018-06-12T14:28:57.328Z,51.18
2018-06-12T14:31:25.556Z,51.48
2018-06-12T14:33:53.827Z,50.49
2018-06-12T14:36:22.074Z,50.18
2018-06-12T14:38:50.304Z,50.32
2018-06-12T14:41:18.583Z,51.66
2018-06-12T14:43:46.832Z,50.99
2018-06-12T14:46:15.094Z,50.00
2018-06-12T14:48:43.368Z,49.33
2018-06-12T14:51:11.601Z,49.42
2018-06-12T14:53:40.814Z,50.03
2018-06-12T14:56:09.108Z,49.92
2018-06-12T14:58:37.298Z,49.19
2018-06-12T15:01:05.574Z,49.12
2018-06-12T15:03:33.829Z,50.43
2018-06-12T15:06:02.804Z,50.11
2018-06-12T15:08:31.134Z,50.54
2018-06-12T15:11:00.178Z,50.97
2018-06-12T15:13:28.402Z,52.30
2018-06-12T15:15:56.637Z,51.87
2018-06-12T15:18:24.868Z,51.61
2018-06-12T15:20:53.158Z,52.22
2018-06-12T15:23:21.421Z,52.35
2018-06-12T15:25:49.801Z,52.59
2018-06-12T15:28:18.065Z,51.20
2018-06-12T15:30:46.327Z,51.49
2018-06-12T15:33:14.643Z,50.96
2018-06-12T15:35:42.856Z,51.49
2018-06-12T15:38:11.089Z,53.26
2018-06-12T15:40:39.376Z,52.38
2018-06-12T15:43:07.658Z,52.46
2018-06-12T15:45:35.873Z,51.65
2018-06-12T15:48:04.160Z,50.90
2018-06-12T15:50:32.437Z,51.74
2018-06-12T15:53:00.631Z,52.14
2018-06-12T15:55:28.879Z,51.75
2018-06-12T15:57:57.128Z,51.72
2018-06-12T16:00:25.381Z,50.33
2018-06-12T16:02:54.716Z,51.03
2018-06-12T16:05:23.054Z,50.58
2018-06-12T16:07:51.285Z,51.67
2018-06-12T16:10:19.575Z,51.98
2018-06-12T16:12:48.367Z,51.14
2018-06-12T16:15:16.601Z,52.25
2018-06-12T16:17:44.863Z,52.66
2018-06-12T16:20:13.172Z,53.55
2018-06-12T16:22:42.244Z,52.92
2018-06-12T16:25:10.507Z,53.76
2018-06-12T16:27:38.752Z,54.19
2018-06-12T16:30:07.051Z,54.31
2018-06-12T16:32:35.345Z,53.54
2018-06-12T16:35:03.588Z,54.15
2018-06-12T16:37:32.269Z,52.77
2018-06-12T16:40:00.468Z,52.49
2018-06-12T16:42:29.262Z,53.12
2018-06-12T16:44:57.455Z,52.24
2018-06-12T16:47:25.705Z,53.76
2018-06-12T16:49:54.209Z,53.35
2018-06-12T16:52:22.470Z,53.98
2018-06-12T16:54:50.718Z,54.08
2018-06-12T16:57:18.997Z,53.04
2018-06-12T16:59:47.228Z,53.87
2018-06-12T17:02:15.499Z,53.18
2018-06-12T17:04:43.786Z,53.19
2018-06-12T17:07:12.026Z,53.81
2018-06-12T17:09:40.304Z,53.99
2018-06-12T17:12:08.556Z,53.40
2018-06-12T17:14:36.828Z,54.47
2018-06-12T17:17:05.101Z,54.56
2018-06-12T17:19:33.330Z,54.59
2018-06-12T17:22:01.766Z,53.80
2018-06-12T17:24:30.435Z,54.62
2018-06-12T17:26:58.715Z,55.02
2018-06-12T17:29:26.948Z,55.25
2018-06-12T17:31:55.167Z,54.69
2018-06-12T17:34:23.491Z,55.07
2018-06-12T17:36:51.718Z,55.43
2018-06-12T17:39:20.069Z,54.73
2018-06-12T17:41:48.349Z,54.12
2018-06-12T17:44:16.552Z,54.91
2018-06-12T17:46:44.842Z,55.19
2018-06-12T17:49:13.051Z,54.64
2018-06-12T17:51:41.284Z,54.13
2018-06-12T17:54:09.544Z,53.88
2018-06-12T17:56:37.772Z,55.65
2018-06-12T17:59:06.028Z,54.20
2018-06-12T18:01:34.286Z,54.96
2018-06-12T18:04:02.522Z,54.83
2018-06-12T18:06:30.749Z,54.99
2018-06-12T18:08:59.013Z,54.50
2018-06-12T18:11:27.219Z,56.01
2018-06-12T18:13:55.505Z,55.11
2018-06-12T18:16:23.754Z,55.10
2018-06-12T18:18:52.044Z,55.68
2018-06-12T18:21:20.263Z,55.92
2018-06-12T18:23:48.580Z,56.06
2018-06-12T18:26:16.858Z,54.50
2018-06-12T18:28:45.222Z,56.64
2018-06-12T18:31:13.537Z,56.07
2018-06-12T18:33:41.841Z,57.03
2018-06-12T18:36:10.113Z,57.07
2018-06-12T18:38:38.379Z,55.86
2018-06-12T18:41:06.618Z,57.13
2018-06-12T18:43:34.857Z,57.17
2018-06-12T18:46:03.084Z,56.56
2018-06-12T18:48:31.316Z,57.22
2018-06-12T18:51:00.360Z,57.49
2018-06-12T18:53:28.607Z,57.24
2018-06-12T18:55:56.855Z,57.24
2018-06-12T18:58:25.270Z,57.62
2018-06-12T19:00:53.583Z,57.84
2018-06-12T19:03:21.870Z,57.06
2018-06-12T19:05:50.098Z,58.32
2018-06-12T19:08:18.420Z,57.24
2018-06-12T19:10:46.731Z,56.89
2018-06-12T19:13:15.090Z,56.99
2018-06-12T19:15:43.605Z,57.53
2018-06-12T19:18:11.930Z,57.48
2018-06-12T19:20:40.219Z,58.40
2018-06-12T19:23:08.502Z,57.33
2018-06-12T19:25:36.768Z,57.84
2018-06-12T19:28:05.091Z,58.59
2018-06-12T19:30:33.463Z,57.00
2018-06-12T19:33:01.669Z,57.86
2018-06-12T19:35:30.017Z,58.38
2018-06-12T19:37:58.288Z,57.42
2018-06-12T19:40:26.591Z,57.75
2018-06-12T19:42:54.813Z,59.05
2018-06-12T19:45:23.139Z,58.54
2018-06-12T19:47:51.460Z,59.22
2018-06-12T19:50:19.801Z,59.02
2018-06-12T19:52:48.059Z,58.19
2018-06-12T19:55:16.347Z,58.49
2018-06-12T19:57:46.530Z,60.86
2018-06-12T20:00:17.144Z,59.11
2018-06-12T20:02:45.319Z,58.81
2018-06-12T20:05:13.522Z,60.03
2018-06-12T20:07:41.789Z,59.94
2018-06-12T20:10:10.016Z,60.30
2018-06-12T20:12:38.320Z,59.46
2018-06-12T20:15:06.549Z,59.38
2018-06-12T20:17:34.819Z,59.95
2018-06-12T20:20:03.055Z,59.60
2018-06-12T20:22:31.304Z,60.67
2018-06-12T20:24:59.634Z,59.97
2018-06-12T20:27:28.011Z,60.02
2018-06-12T20:29:56.304Z,60.16
2018-06-12T20:32:24.540Z,60.10
2018-06-12T20:34:52.818Z,59.94
2018-06-12T20:37:21.045Z,60.65
2018-06-12T20:39:49.281Z,61.22
2018-06-12T20:42:17.486Z,61.04
2018-06-12T20:44:45.785Z,60.66
2018-06-12T20:47:14.053Z,60.55
2018-06-12T20:49:42.475Z,61.48
2018-06-12T20:52:10.861Z,61.40
2018-06-12T20:54:39.114Z,61.61
2018-06-12T20:57:07.475Z,60.47
2018-06-12T20:59:35.768Z,61.30
2018-06-12T21:02:04.034Z,61.05
2018-06-12T21:04:32.268Z,60.66
2018-06-12T21:07:00.643Z,62.22
2018-06-12T21:09:28.820Z,61.34
2018-06-12T21:11:57.080Z,62.49
2018-06-12T21:14:25.304Z,62.00
2018-06-12T21:16:53.533Z,61.63
2018-06-12T21:19:21.830Z,62.04
2018-06-12T21:21:50.136Z,61.67
2018-06-12T21:24:18.378Z,62.20
2018-06-12T21:26:46.775Z,61.07
2018-06-12T21:29:15.022Z,61.96
2018-06-12T21:31:43.321Z,61.32
2018-06-12T21:34:11.688Z,61.73
2018-06-12T21:36:39.998Z,61.41
2018-06-12T21:39:08.499Z,61.89
2018-06-12T21:41:36.778Z,61.61
2018-06-12T21:44:05.152Z,61.14
2018-06-12T21:46:33.365Z,61.17
2018-06-12T21:49:01.585Z,61.68
2018-06-12T21:51:29.896Z,61.17
2018-06-12T21:53:58.221Z,60.67
2018-06-12T21:56:26.448Z,60.17
2018-06-12T21:58:54.826Z,61.38
2018-06-12T22:01:23.012Z,61.89
2018-06-12T22:03:51.415Z,61.71
2018-06-12T22:06:20.331Z,61.54
2018-06-12T22:08:48.651Z,62.22
2018-06-12T22:11:16.896Z,61.67
2018-06-12T22:13:45.104Z,61.83
2018-06-12T22:16:22.016Z,62.71
2018-06-12T22:18:50.765Z,61.80
2018-06-12T22:21:19.698Z,62.71
2018-06-12T22:23:48.003Z,63.20
2018-06-12T22:26:16.240Z,63.26
2018-06-12T22:28:45.534Z,63.38
2018-06-12T22:31:17.892Z,63.35
2018-06-12T22:33:47.715Z,63.13
2018-06-12T22:36:16.131Z,62.97
2018-06-12T22:38:44.417Z,63.01
2018-06-12T22:41:12.658Z,63.80
2018-06-12T22:43:40.944Z,63.69
2018-06-12T22:46:09.318Z,63.27
2018-06-12T22:48:37.629Z,62.02
2018-06-12T22:51:05.928Z,62.70
2018-06-12T22:53:34.225Z,62.79
2018-06-12T22:56:02.525Z,62.87
2018-06-12T22:58:30.844Z,63.18
2018-06-12T23:00:59.147Z,63.30
2018-06-12T23:03:27.384Z,62.82
2018-06-12T23:05:55.704Z,62.68
2018-06-12T23:08:24.018Z,62.85
2018-06-12T23:10:52.330Z,63.38
2018-06-12T23:13:20.591Z,63.82
2018-06-12T23:15:48.848Z,64.16
2018-06-12T23:18:17.112Z,65.45
2018-06-12T23:21:57.819Z,65.08
2018-06-12T23:24:26.154Z,65.94
2018-06-12T23:26:54.426Z,67.18
2018-06-12T23:29:22.642Z,67.73
2018-06-12T23:31:50.856Z,67.95
2018-06-12T23:34:19.154Z,67.33
2018-06-12T23:36:47.459Z,66.92
2018-06-12T23:39:15.807Z,66.96
2018-06-12T23:41:44.025Z,66.72
2018-06-12T23:44:12.267Z,65.94
2018-06-12T23:46:40.482Z,64.69
2018-06-12T23:49:08.763Z,64.81
2018-06-12T23:51:36.975Z,64.84
2018-06-12T23:54:05.267Z,64.31
2018-06-12T23:56:33.534Z,63.56
2018-06-12T23:59:01.831Z,62.89
